Time;durP1;ratioP1;P1;durP2;ratioP2;P2;SDS_P1;SDS_P2;PMS_P1;PMS_P2;Temp;Humidity;BMP_temperature;BMP_pressure;BME280_temperature;BME280_humidity;BME280_pressure;Samples;Min_cycle;Max_cycle;Signal;HPM_P1;HPM_P2
2022/11/21 00:01:35;;;;;;;4.93;1.93;;;9.10;86.80;;;;;;5049620;28;20185;-50
2022/11/21 00:04:06;;;;;;;1.92;1.75;;;9.20;87.10;;;;;;5054625;28;20459;-49
2022/11/21 00:06:34;;;;;;;5.10;1.43;;;9.10;87.00;;;;;;5056409;28;20189;-49
2022/11/21 00:09:03;;;;;;;6.33;1.93;;;9.10;87.00;;;;;;5056486;28;20447;-49
2022/11/21 00:11:31;;;;;;;4.90;2.10;;;9.10;87.00;;;;;;5064480;28;20463;-49
2022/11/21 00:14:00;;;;;;;4.28;1.58;;;9.10;87.00;;;;;;5049680;28;20455;-51
2022/11/21 00:16:29;;;;;;;3.20;1.52;;;9.10;87.00;;;;;;5057772;28;20191;-48
2022/11/21 00:18:58;;;;;;;5.05;1.80;;;9.10;86.80;;;;;;5050278;28;20205;-50
2022/11/21 00:21:28;;;;;;;2.65;2.05;;;9.10;87.10;;;;;;5050720;28;20331;-50
2022/11/21 00:23:56;;;;;;;3.80;1.80;;;9.10;86.80;;;;;;5047867;28;20221;-51
2022/11/21 00:26:25;;;;;;;3.30;1.80;;;9.10;87.00;;;;;;5067671;28;20197;-49
2022/11/21 00:28:54;;;;;;;1.50;1.40;;;9.10;86.80;;;;;;5057104;28;20285;-50
2022/11/21 00:31:24;;;;;;;3.43;1.97;;;9.10;86.80;;;;;;5051408;28;20459;-49
2022/11/21 00:33:52;;;;;;;3.00;1.65;;;9.10;86.90;;;;;;5048976;28;20451;-50
2022/11/21 00:36:21;;;;;;;3.77;2.53;;;9.10;87.00;;;;;;5050410;28;20253;-50
2022/11/21 00:38:51;;;;;;;2.22;1.83;;;9.10;87.00;;;;;;5048279;28;20507;-53
2022/11/21 00:41:20;;;;;;;3.10;2.00;;;9.10;87.00;;;;;;5047727;28;20201;-51
2022/11/21 00:43:48;;;;;;;5.63;2.20;;;9.10;86.80;;;;;;5054035;28;20475;-50
2022/11/21 00:46:17;;;;;;;2.40;1.60;;;9.10;88.20;;;;;;5048874;28;20508;-50
2022/11/21 00:48:46;;;;;;;3.90;1.60;;;9.10;86.80;;;;;;5047703;28;20857;-49
2022/11/21 00:51:14;;;;;;;8.57;2.25;;;9.10;86.90;;;;;;5051467;28;20530;-51
2022/11/21 00:53:43;;;;;;;5.40;1.80;;;9.10;86.90;;;;;;5049577;28;20262;-51
2022/11/21 00:56:13;;;;;;;2.53;1.38;;;9.10;86.80;;;;;;5052945;28;20220;-49
2022/11/21 00:58:41;;;;;;;2.45;1.45;;;9.10;86.90;;;;;;5054235;28;20284;-51
2022/11/21 01:01:12;;;;;;;1.90;1.40;;;9.10;86.80;;;;;;5045535;28;20224;-50
2022/11/21 01:03:42;;;;;;;4.03;1.67;;;9.10;86.80;;;;;;5050086;28;20319;-51
2022/11/21 01:06:12;;;;;;;5.80;1.75;;;9.10;86.90;;;;;;5049158;28;20546;-52
2022/11/21 01:08:42;;;;;;;4.07;1.95;;;9.10;86.80;;;;;;5051752;28;20184;-50
2022/11/21 01:11:16;;;;;;;3.42;1.90;;;9.10;86.80;;;;;;5026875;28;20225;-51
2022/11/21 01:13:45;;;;;;;3.05;1.35;;;9.10;86.80;;;;;;5032342;28;20209;-50
2022/11/21 01:16:14;;;;;;;3.38;1.60;;;9.10;86.70;;;;;;5021712;28;20289;-52
2022/11/21 01:18:43;;;;;;;7.30;1.30;;;9.10;86.70;;;;;;5046008;28;20210;-51
2022/11/21 01:21:15;;;;;;;4.30;1.77;;;9.10;86.80;;;;;;5031718;28;20287;-50
2022/11/21 01:23:44;;;;;;;4.50;1.70;;;9.10;86.70;;;;;;5033556;28;20711;-49
2022/11/21 01:26:16;;;;;;;2.00;1.50;;;9.10;86.80;;;;;;5040555;28;20448;-50
2022/11/21 01:28:44;;;;;;;3.03;1.13;;;9.10;86.70;;;;;;5049184;28;20927;-50
2022/11/21 01:31:14;;;;;;;3.10;1.75;;;9.10;86.60;;;;;;5051137;28;20583;-50
2022/11/21 01:33:44;;;;;;;3.47;1.70;;;9.10;86.60;;;;;;5048139;28;20211;-51
2022/11/21 01:36:14;;;;;;;3.33;1.40;;;9.10;86.60;;;;;;5058073;28;20227;-49
2022/11/21 01:38:47;;;;;;;1.50;1.13;;;9.10;86.50;;;;;;5048214;28;20247;-48
2022/11/21 01:41:19;;;;;;;3.45;1.92;;;9.10;86.60;;;;;;5043907;28;20246;-50
2022/11/21 01:43:49;;;;;;;1.73;1.25;;;9.10;86.60;;;;;;5043543;28;20221;-50
2022/11/21 01:46:19;;;;;;;4.78;2.05;;;9.10;86.50;;;;;;5047929;28;20673;-50
2022/11/21 01:48:53;;;;;;;3.13;1.90;;;9.10;86.60;;;;;;5054350;28;20216;-51
2022/11/21 01:51:27;;;;;;;3.38;1.63;;;9.10;86.60;;;;;;5052999;28;20469;-50
2022/11/21 01:54:01;;;;;;;1.75;1.48;;;9.10;86.70;;;;;;5049963;28;20299;-50
2022/11/21 01:56:34;;;;;;;4.50;1.67;;;9.10;86.50;;;;;;5048634;28;20199;-50
2022/11/21 01:59:04;;;;;;;2.95;1.55;;;9.10;86.50;;;;;;5040863;28;20593;-50
2022/11/21 02:01:35;;;;;;;5.55;1.38;;;9.10;86.50;;;;;;5047337;28;20299;-52
2022/11/21 02:04:06;;;;;;;3.83;1.60;;;9.10;86.50;;;;;;5051296;28;20212;-52
2022/11/21 02:06:36;;;;;;;1.90;1.20;;;9.10;86.50;;;;;;5047195;28;20242;-51
2022/11/21 02:09:06;;;;;;;3.22;1.40;;;9.10;86.50;;;;;;5045782;28;20466;-50
2022/11/21 02:11:40;;;;;;;1.75;1.27;;;9.10;86.40;;;;;;5046293;28;20292;-52
2022/11/21 02:14:11;;;;;;;1.30;1.00;;;9.10;86.40;;;;;;5048401;28;20223;-50
2022/11/21 02:16:40;;;;;;;5.05;1.58;;;9.10;86.40;;;;;;5045945;28;20198;-49
2022/11/21 02:19:15;;;;;;;3.27;1.57;;;9.10;86.50;;;;;;5054730;28;20215;-51
2022/11/21 02:21:49;;;;;;;2.90;1.35;;;9.10;86.40;;;;;;5037495;28;20457;-52
2022/11/21 02:24:26;;;;;;;4.00;1.70;;;9.10;86.40;;;;;;5043811;28;20228;-50
2022/11/21 02:26:58;;;;;;;3.22;1.95;;;9.10;87.60;;;;;;5045938;28;20189;-51
2022/11/21 02:29:27;;;;;;;2.78;1.48;;;9.10;86.40;;;;;;5041767;28;20190;-49
2022/11/21 02:31:59;;;;;;;4.10;1.80;;;9.10;86.40;;;;;;5054543;28;20198;-49
2022/11/21 02:34:32;;;;;;;3.05;1.30;;;9.10;86.30;;;;;;5048396;28;20238;-49
2022/11/21 02:37:12;;;;;;;3.53;1.33;;;9.10;86.30;;;;;;5043960;28;20181;-50
2022/11/21 02:39:45;;;;;;;2.08;1.13;;;9.10;86.30;;;;;;5053002;28;20503;-52
2022/11/21 02:42:24;;;;;;;2.88;1.30;;;9.10;86.40;;;;;;5046400;28;20622;-49
2022/11/21 02:44:59;;;;;;;2.40;1.70;;;9.10;86.30;;;;;;5052360;28;20247;-49
2022/11/21 02:47:29;;;;;;;3.65;1.40;;;9.10;86.30;;;;;;5051350;28;20215;-50
2022/11/21 02:50:03;;;;;;;4.65;1.08;;;9.10;86.40;;;;;;5046371;28;20228;-51
2022/11/21 02:52:31;;;;;;;2.28;1.40;;;9.10;86.40;;;;;;5046479;28;20626;-49
2022/11/21 02:55:00;;;;;;;2.00;1.15;;;9.10;86.40;;;;;;5038362;28;20240;-50
2022/11/21 02:57:30;;;;;;;4.70;1.55;;;9.10;86.40;;;;;;5029929;28;20201;-50
2022/11/21 02:59:58;;;;;;;2.57;1.20;;;9.10;86.40;;;;;;5047389;28;20236;-49
2022/11/21 03:02:27;;;;;;;3.00;1.23;;;9.10;86.30;;;;;;5031565;28;20467;-51
2022/11/21 03:04:56;;;;;;;4.63;1.33;;;9.10;86.30;;;;;;5047277;28;20636;-49
2022/11/21 03:07:24;;;;;;;1.50;1.30;;;9.10;87.60;;;;;;5033232;28;20868;-51
2022/11/21 03:09:53;;;;;;;1.38;1.02;;;9.10;86.40;;;;;;5039042;28;20230;-52
2022/11/21 03:12:21;;;;;;;2.10;1.50;;;9.10;86.40;;;;;;5037492;28;21017;-50
2022/11/21 03:14:51;;;;;;;5.53;1.67;;;9.10;86.40;;;;;;5047870;28;20284;-52
2022/11/21 03:17:20;;;;;;;1.77;0.77;;;9.10;86.40;;;;;;5045629;28;20239;-50
2022/11/21 03:19:48;;;;;;;1.00;0.90;;;9.10;86.40;;;;;;5051983;28;20463;-51
2022/11/21 03:22:17;;;;;;;2.75;0.93;;;9.10;86.40;;;;;;5049925;28;20196;-52
2022/11/21 03:24:45;;;;;;;1.60;1.20;;;9.10;86.30;;;;;;5049812;28;20201;-51
2022/11/21 03:27:14;;;;;;;2.35;1.27;;;9.10;86.40;;;;;;5054674;28;20188;-51
2022/11/21 03:29:42;;;;;;;1.80;1.20;;;9.10;86.30;;;;;;5072245;28;20273;-51
2022/11/21 03:32:12;;;;;;;2.17;0.88;;;9.10;86.30;;;;;;5048449;28;20191;-51
2022/11/21 03:34:41;;;;;;;2.00;1.00;;;9.10;86.30;;;;;;5049880;28;20191;-50
2022/11/21 03:37:10;;;;;;;5.70;1.70;;;9.10;86.30;;;;;;5053076;28;20188;-49
2022/11/21 03:39:38;;;;;;;7.20;1.57;;;9.10;86.40;;;;;;5053096;28;20215;-51
2022/11/21 03:42:07;;;;;;;3.63;1.70;;;9.10;86.30;;;;;;5049698;28;20441;-51
2022/11/21 03:44:35;;;;;;;2.03;1.30;;;9.10;86.30;;;;;;5047738;28;20947;-50
2022/11/21 03:47:04;;;;;;;2.15;1.33;;;9.10;86.30;;;;;;5048274;28;21015;-51
2022/11/21 03:49:34;;;;;;;4.10;1.67;;;9.10;86.20;;;;;;5057112;28;20730;-51
2022/11/21 03:52:02;;;;;;;1.50;1.20;;;9.10;86.20;;;;;;5049335;28;20243;-51
2022/11/21 03:54:31;;;;;;;2.35;1.13;;;9.10;86.20;;;;;;5046573;28;20246;-50
2022/11/21 03:56:59;;;;;;;3.78;1.13;;;9.10;86.30;;;;;;5049565;28;20680;-52
2022/11/21 03:59:28;;;;;;;4.45;1.60;;;9.10;86.20;;;;;;5066232;28;20197;-51
2022/11/21 04:01:56;;;;;;;1.30;1.20;;;9.10;86.40;;;;;;5061430;28;20509;-51
2022/11/21 04:04:25;;;;;;;2.35;1.40;;;9.10;86.30;;;;;;5048262;28;20246;-51
2022/11/21 04:06:55;;;;;;;1.85;1.65;;;9.10;86.30;;;;;;5065676;28;20721;-50
2022/11/21 04:09:24;;;;;;;3.10;1.42;;;9.10;86.60;;;;;;5048182;28;20545;-49
2022/11/21 04:11:52;;;;;;;1.48;1.38;;;9.10;86.60;;;;;;5048453;28;20241;-50
2022/11/21 04:14:21;;;;;;;4.10;1.88;;;9.10;86.50;;;;;;5051294;28;20227;-51
2022/11/21 04:16:49;;;;;;;1.33;1.23;;;9.10;86.50;;;;;;5052696;28;20254;-50
2022/11/21 04:19:18;;;;;;;1.90;1.20;;;9.10;87.60;;;;;;5049084;28;20223;-49
2022/11/21 04:21:46;;;;;;;2.58;1.50;;;9.10;86.30;;;;;;5052892;28;20196;-51
2022/11/21 04:24:16;;;;;;;1.50;1.10;;;9.10;86.30;;;;;;5049050;28;20228;-49
2022/11/21 04:26:44;;;;;;;1.20;1.07;;;9.10;86.30;;;;;;5050464;28;20193;-49
2022/11/21 04:29:13;;;;;;;1.85;1.05;;;9.10;86.20;;;;;;5053796;28;20431;-49
2022/11/21 04:31:41;;;;;;;1.70;1.60;;;9.10;86.40;;;;;;5050096;28;20284;-49
2022/11/21 04:34:10;;;;;;;2.63;1.30;;;9.10;86.50;;;;;;5049408;28;20478;-49
2022/11/21 04:36:38;;;;;;;4.63;1.52;;;9.10;86.30;;;;;;5049805;28;20204;-51
2022/11/21 04:39:07;;;;;;;2.03;1.30;;;9.10;86.40;;;;;;5048317;28;20224;-50
2022/11/21 04:41:37;;;;;;;1.98;1.40;;;9.00;86.30;;;;;;5069202;28;20434;-51
2022/11/21 04:44:06;;;;;;;2.23;1.63;;;9.10;86.30;;;;;;5050558;28;20571;-52
2022/11/21 04:46:34;;;;;;;1.10;1.00;;;9.10;86.30;;;;;;5047664;28;20510;-49
2022/11/21 04:49:03;;;;;;;3.92;1.20;;;9.10;86.30;;;;;;5049347;28;20212;-50
2022/11/21 04:51:31;;;;;;;2.15;1.58;;;9.10;86.30;;;;;;5053059;28;20288;-51
2022/11/21 04:54:00;;;;;;;2.60;1.37;;;9.10;86.20;;;;;;5049007;28;20224;-50
2022/11/21 04:56:29;;;;;;;4.15;1.20;;;9.10;86.30;;;;;;5069515;28;20449;-51
2022/11/21 04:58:59;;;;;;;2.00;1.10;;;9.10;86.20;;;;;;5048941;28;20733;-50
2022/11/21 05:01:28;;;;;;;2.38;1.13;;;9.10;86.30;;;;;;5059693;28;20189;-51
2022/11/21 05:03:56;;;;;;;3.00;1.40;;;9.10;86.20;;;;;;5049936;28;20598;-51
2022/11/21 05:06:25;;;;;;;3.50;1.43;;;9.10;86.20;;;;;;5084138;28;20203;-50
2022/11/21 05:08:54;;;;;;;1.38;1.00;;;9.00;86.10;;;;;;5072144;28;20450;-50
2022/11/21 05:14:10;;;;;;;1.23;1.05;;;9.10;86.20;;;;;;5053161;28;20277;-51
2022/11/21 05:16:38;;;;;;;1.60;1.30;;;9.10;86.20;;;;;;5047200;28;20734;-51
2022/11/21 05:19:07;;;;;;;1.10;0.90;;;9.00;86.00;;;;;;5046677;28;20297;-50
2022/11/21 05:21:36;;;;;;;2.03;1.23;;;9.10;86.30;;;;;;5053307;28;20959;-49
2022/11/21 05:24:04;;;;;;;1.35;1.02;;;9.10;86.20;;;;;;5055658;28;20455;-50
2022/11/21 05:26:33;;;;;;;1.45;1.33;;;9.10;86.10;;;;;;5066065;28;20205;-51
2022/11/21 05:29:02;;;;;;;1.75;1.20;;;9.00;86.00;;;;;;5051580;28;20193;-51
2022/11/21 05:31:31;;;;;;;2.35;0.90;;;9.00;86.10;;;;;;5047421;28;20192;-51
2022/11/21 05:34:00;;;;;;;1.58;1.20;;;9.00;86.20;;;;;;5047098;28;20599;-52
2022/11/21 05:36:29;;;;;;;2.20;1.17;;;9.00;86.10;;;;;;5045380;28;20430;-50
2022/11/21 05:38:57;;;;;;;2.03;1.10;;;9.00;86.10;;;;;;5051196;28;20208;-49
2022/11/21 05:41:26;;;;;;;1.00;0.90;;;9.00;86.10;;;;;;5049797;28;20196;-52
2022/11/21 05:43:54;;;;;;;1.60;1.08;;;9.00;86.10;;;;;;5070960;28;20867;-51
2022/11/21 05:46:24;;;;;;;1.92;1.23;;;9.10;86.30;;;;;;5043191;28;20197;-51
2022/11/21 05:48:55;;;;;;;1.80;1.10;;;9.00;86.10;;;;;;5048061;28;20200;-51
2022/11/21 05:51:23;;;;;;;2.00;1.03;;;9.00;86.20;;;;;;5057194;28;20200;-51
2022/11/21 05:53:52;;;;;;;1.20;1.00;;;9.10;86.20;;;;;;5042055;28;20466;-49
2022/11/21 05:56:21;;;;;;;1.57;1.20;;;9.00;86.10;;;;;;5066722;28;20208;-49
2022/11/21 05:58:49;;;;;;;2.40;1.25;;;9.00;86.00;;;;;;5052248;28;20986;-49
2022/11/21 06:03:25;;;;;;;1.27;0.85;;;9.00;86.00;;;;;;5045986;28;20279;-49
2022/11/21 06:04:07;;;;;;;1.33;1.00;;;9.00;86.00;;;;;;5047066;28;21104;-51
2022/11/21 06:06:36;;;;;;;2.08;1.40;;;9.00;86.10;;;;;;5071912;28;20944;-51
2022/11/21 06:09:05;;;;;;;1.10;1.00;;;9.00;86.10;;;;;;5047580;28;20741;-52
2022/11/21 06:11:34;;;;;;;1.92;1.10;;;9.00;86.10;;;;;;5054635;28;20240;-50
2022/11/21 06:14:05;;;;;;;1.30;1.10;;;9.00;86.10;;;;;;5047407;28;20289;-51
2022/11/21 06:16:34;;;;;;;5.13;1.10;;;9.00;87.40;;;;;;5071479;28;20536;-50
2022/11/21 06:19:02;;;;;;;2.05;1.45;;;9.00;86.10;;;;;;5066924;28;20878;-49
2022/11/21 06:21:36;;;;;;;1.20;1.10;;;9.00;86.10;;;;;;5049575;28;20249;-50
2022/11/21 06:24:05;;;;;;;2.67;1.65;;;9.00;86.00;;;;;;5052948;28;20827;-51
2022/11/21 06:26:33;;;;;;;2.60;1.60;;;9.00;86.10;;;;;;5054176;28;20203;-50
2022/11/21 06:29:02;;;;;;;2.75;1.48;;;9.00;86.30;;;;;;5047375;28;20200;-49
2022/11/21 06:31:30;;;;;;;2.92;1.20;;;9.00;86.20;;;;;;5049687;28;20193;-52
2022/11/21 06:33:59;;;;;;;1.50;1.10;;;9.00;86.10;;;;;;5053861;28;20208;-51
2022/11/21 06:36:28;;;;;;;2.55;1.73;;;9.00;86.10;;;;;;5081912;28;20472;-50
2022/11/21 06:38:58;;;;;;;1.10;1.02;;;9.00;86.10;;;;;;5049525;28;20219;-49
2022/11/21 06:41:29;;;;;;;1.90;1.20;;;9.00;86.10;;;;;;5083365;28;20245;-50
2022/11/21 06:44:00;;;;;;;1.52;1.10;;;9.00;86.00;;;;;;5077000;28;20722;-50
2022/11/21 06:46:28;;;;;;;1.30;1.20;;;9.00;86.10;;;;;;5055121;28;20197;-49
2022/11/21 06:48:56;;;;;;;3.67;1.45;;;9.00;86.00;;;;;;5051547;28;20680;-50
2022/11/21 06:51:25;;;;;;;1.80;1.20;;;9.00;85.90;;;;;;5055496;28;20283;-49
2022/11/21 06:53:55;;;;;;;1.38;1.27;;;9.00;85.90;;;;;;5072652;28;20754;-49
2022/11/21 06:56:31;;;;;;;1.40;0.77;;;9.00;86.00;;;;;;5082964;28;20279;-51
2022/11/21 06:58:59;;;;;;;1.40;1.10;;;9.00;86.00;;;;;;5059455;28;20445;-50
2022/11/21 07:01:27;;;;;;;3.17;1.75;;;9.00;86.00;;;;;;5059427;28;20310;-49
2022/11/21 07:03:56;;;;;;;1.08;0.98;;;9.00;86.00;;;;;;5048514;28;20236;-51
2022/11/21 07:06:26;;;;;;;1.63;1.25;;;9.00;86.00;;;;;;5046654;28;20192;-49
2022/11/21 07:08:54;;;;;;;1.52;1.13;;;9.00;86.00;;;;;;5066598;28;20864;-50
2022/11/21 07:11:44;;;;;;;5.15;1.58;;;9.00;86.00;;;;;;5052011;28;20672;-51
2022/11/21 07:14:12;;;;;;;1.63;1.00;;;9.00;86.10;;;;;;5057448;28;20251;-50
2022/11/21 07:16:40;;;;;;;1.50;1.40;;;9.00;86.00;;;;;;5054161;28;20200;-50
2022/11/21 07:19:08;;;;;;;1.70;1.50;;;9.00;85.90;;;;;;5055049;28;20225;-49
2022/11/21 07:21:37;;;;;;;3.28;1.00;;;9.00;86.00;;;;;;5050260;28;20192;-48
2022/11/21 07:24:07;;;;;;;2.40;1.27;;;9.00;86.00;;;;;;5049504;28;20300;-49
2022/11/21 07:26:35;;;;;;;1.35;1.00;;;9.00;86.10;;;;;;5050228;28;20620;-48
2022/11/21 07:29:05;;;;;;;1.00;0.90;;;9.00;86.00;;;;;;5053797;28;20200;-49
2022/11/21 07:31:33;;;;;;;1.30;1.20;;;9.00;86.00;;;;;;5079828;28;20227;-49
2022/11/21 07:34:02;;;;;;;1.35;1.25;;;9.00;86.00;;;;;;5059055;28;20299;-51
2022/11/21 07:36:31;;;;;;;1.33;1.05;;;9.00;85.90;;;;;;5044133;28;20217;-50
2022/11/21 07:39:00;;;;;;;1.10;0.90;;;9.00;86.00;;;;;;5025801;28;20366;-50
2022/11/21 07:41:28;;;;;;;2.22;1.20;;;9.00;86.00;;;;;;5048848;28;20239;-49
2022/11/21 07:43:57;;;;;;;1.80;1.70;;;9.00;86.00;;;;;;5052765;28;20319;-49
2022/11/21 07:46:27;;;;;;;1.67;1.30;;;9.00;86.00;;;;;;5056817;28;20271;-50
2022/11/21 07:48:55;;;;;;;2.28;1.35;;;9.00;85.90;;;;;;5048442;28;20238;-49
2022/11/21 07:51:30;;;;;;;0.93;0.82;;;9.00;85.90;;;;;;5053882;28;20195;-49
2022/11/21 07:53:59;;;;;;;1.95;1.10;;;9.00;85.90;;;;;;5048216;28;20703;-50
2022/11/21 07:56:27;;;;;;;2.00;1.33;;;9.00;86.00;;;;;;5061712;28;20314;-49
2022/11/21 07:58:55;;;;;;;1.30;1.05;;;9.00;85.80;;;;;;5065623;28;20188;-49
2022/11/21 08:01:24;;;;;;;1.30;1.17;;;9.00;85.80;;;;;;5049845;28;20204;-49
2022/11/21 08:03:53;;;;;;;1.33;1.02;;;9.00;85.90;;;;;;5057115;28;20227;-49
2022/11/21 08:06:22;;;;;;;1.77;1.10;;;9.00;85.90;;;;;;5057282;28;20740;-51
2022/11/21 08:08:53;;;;;;;2.28;1.85;;;9.00;85.90;;;;;;5047174;28;20221;-49
2022/11/21 08:11:21;;;;;;;1.20;1.10;;;9.00;86.00;;;;;;5048239;28;20622;-49
2022/11/21 08:13:50;;;;;;;1.42;0.82;;;9.00;86.00;;;;;;5065721;28;20220;-51
2022/11/21 08:16:18;;;;;;;0.85;0.82;;;9.00;85.90;;;;;;5049371;28;20247;-51
2022/11/21 08:18:48;;;;;;;1.60;1.13;;;9.00;85.90;;;;;;5053142;28;20196;-49
2022/11/21 08:21:18;;;;;;;1.98;1.52;;;9.00;85.80;;;;;;5048385;28;20222;-50
2022/11/21 08:23:47;;;;;;;2.17;1.30;;;9.00;85.80;;;;;;5050331;28;20637;-48
2022/11/21 08:26:16;;;;;;;1.30;1.20;;;9.00;85.90;;;;;;5053418;28;20214;-50
2022/11/21 08:28:45;;;;;;;1.35;1.25;;;9.00;86.10;;;;;;5064506;28;20192;-50
2022/11/21 08:31:14;;;;;;;1.23;1.10;;;9.00;86.10;;;;;;5047635;28;20224;-50
2022/11/21 08:33:43;;;;;;;1.40;1.15;;;9.00;86.00;;;;;;5050831;28;20205;-50
2022/11/21 08:36:11;;;;;;;5.50;1.38;;;9.00;85.90;;;;;;5058595;28;20722;-50
2022/11/21 08:38:41;;;;;;;1.45;1.27;;;9.00;86.00;;;;;;5049591;28;20192;-50
2022/11/21 08:43:58;;;;;;;3.65;1.15;;;9.00;85.90;;;;;;5041266;28;20216;-50
2022/11/21 08:46:27;;;;;;;1.25;0.95;;;9.00;86.00;;;;;;5046840;28;20640;-50
2022/11/21 08:48:55;;;;;;;1.88;1.10;;;9.00;86.00;;;;;;5042020;28;20200;-49
2022/11/21 08:51:24;;;;;;;2.37;1.27;;;9.00;86.10;;;;;;5060892;28;20193;-51
2022/11/21 08:53:54;;;;;;;1.88;1.10;;;9.00;85.90;;;;;;5046237;28;20986;-47
2022/11/21 08:56:24;;;;;;;1.83;1.10;;;9.00;86.20;;;;;;5061825;28;20259;-48
2022/11/21 08:58:52;;;;;;;2.10;1.40;;;9.00;85.90;;;;;;5055114;28;20201;-50
2022/11/21 09:01:20;;;;;;;3.40;1.38;;;9.00;86.10;;;;;;5050587;28;20189;-50
2022/11/21 09:03:53;;;;;;;2.70;1.17;;;9.00;86.00;;;;;;5059320;28;20223;-49
2022/11/21 09:06:21;;;;;;;2.78;1.77;;;9.00;85.90;;;;;;5049259;28;20498;-49
2022/11/21 09:08:50;;;;;;;1.50;1.00;;;9.00;85.90;;;;;;5055544;28;20193;-49
2022/11/21 09:11:21;;;;;;;1.30;1.10;;;9.00;85.90;;;;;;5041871;28;20966;-49
2022/11/21 09:19:19;;;;;;;1.23;0.80;;;9.10;85.90;;;;;;5025017;28;20252;-50
2022/11/21 09:21:49;;;;;;;1.10;0.90;;;9.10;85.90;;;;;;5064482;28;20228;-50
2022/11/21 09:24:18;;;;;;;2.08;1.13;;;9.10;85.80;;;;;;5042932;28;20225;-51
2022/11/21 09:26:47;;;;;;;1.95;1.15;;;9.10;85.80;;;;;;5046625;28;20271;-49
2022/11/21 09:29:16;;;;;;;1.25;1.10;;;9.10;85.70;;;;;;5046905;28;20246;-49
2022/11/21 09:31:45;;;;;;;2.30;1.23;;;9.10;85.70;;;;;;5046978;28;20288;-50
2022/11/21 09:34:17;;;;;;;5.63;1.40;;;9.20;85.60;;;;;;5049338;28;20228;-50
2022/11/21 09:36:45;;;;;;;0.82;0.82;;;9.10;85.50;;;;;;5049128;28;20207;-49
2022/11/21 09:39:14;;;;;;;0.88;0.80;;;9.20;85.40;;;;;;5047666;28;20203;-50
2022/11/21 09:41:52;;;;;;;1.90;1.20;;;9.20;85.50;;;;;;5073447;28;20192;-49
2022/11/21 09:44:44;;;;;;;1.27;1.00;;;9.20;85.40;;;;;;5053840;28;20815;-50
2022/11/21 09:47:22;;;;;;;1.30;1.20;;;9.20;85.40;;;;;;5046810;28;20464;-50
2022/11/21 09:49:55;;;;;;;1.77;1.33;;;9.20;85.30;;;;;;5062632;28;20270;-49
2022/11/21 09:52:30;;;;;;;2.72;1.10;;;9.20;85.20;;;;;;5052411;28;20469;-50
2022/11/21 09:55:04;;;;;;;1.70;0.95;;;9.20;85.20;;;;;;5060788;28;20838;-52
2022/11/21 09:57:35;;;;;;;1.55;0.82;;;9.20;85.20;;;;;;5049934;28;20599;-49
2022/11/21 10:00:16;;;;;;;1.43;0.80;;;9.20;85.20;;;;;;5047624;28;20319;-50
2022/11/21 10:02:44;;;;;;;1.13;1.02;;;9.20;85.20;;;;;;5047553;28;20837;-49
2022/11/21 10:05:15;;;;;;;1.85;1.30;;;9.20;85.20;;;;;;5054630;28;20247;-50
2022/11/21 10:07:45;;;;;;;0.80;0.73;;;9.20;85.20;;;;;;5052515;28;20220;-50
2022/11/21 10:10:31;;;;;;;1.60;1.03;;;9.20;85.10;;;;;;5045096;28;20899;-50
2022/11/21 10:13:20;;;;;;;1.58;1.20;;;9.20;85.10;;;;;;5064365;28;20458;-51
2022/11/21 10:15:58;;;;;;;1.00;0.80;;;9.20;85.10;;;;;;5060777;28;20216;-49
2022/11/21 10:18:46;;;;;;;0.80;0.70;;;9.20;85.10;;;;;;5049829;28;20442;-50
2022/11/21 10:21:30;;;;;;;1.98;1.27;;;9.20;85.10;;;;;;5036455;28;20222;-50
2022/11/21 10:24:16;;;;;;;1.50;0.98;;;9.20;85.10;;;;;;5047759;28;20204;-49
2022/11/21 10:26:51;;;;;;;1.45;1.10;;;9.20;85.10;;;;;;5062570;28;20200;-48
2022/11/21 10:29:26;;;;;;;1.50;0.85;;;9.20;85.20;;;;;;5052631;28;20216;-49
2022/11/21 10:31:58;;;;;;;1.92;1.10;;;9.20;85.10;;;;;;5023376;28;20215;-49
2022/11/21 10:34:34;;;;;;;1.73;0.75;;;9.20;85.10;;;;;;5048119;28;20216;-49
2022/11/21 10:37:11;;;;;;;1.10;0.70;;;9.20;85.20;;;;;;5053596;28;20270;-51
2022/11/21 10:39:45;;;;;;;1.30;1.00;;;9.20;85.10;;;;;;5045242;28;20561;-49
2022/11/21 10:42:22;;;;;;;1.23;1.03;;;9.20;85.20;;;;;;5055240;28;20530;-49
2022/11/21 10:47:51;;;;;;;1.13;1.00;;;9.20;85.20;;;;;;4971316;28;20769;-49
2022/11/21 10:50:35;;;;;;;0.70;0.60;;;9.20;85.20;;;;;;5023944;28;20467;-50
2022/11/21 10:56:02;;;;;;;1.00;0.80;;;9.20;85.00;;;;;;5044391;28;20594;-51
2022/11/21 10:58:37;;;;;;;2.65;0.90;;;9.20;85.20;;;;;;5054668;28;20441;-50
2022/11/21 11:01:18;;;;;;;1.70;0.80;;;9.20;85.20;;;;;;5046727;28;20216;-49
2022/11/21 11:03:46;;;;;;;1.40;0.70;;;9.20;85.30;;;;;;5048345;28;20573;-49
2022/11/21 11:06:35;;;;;;;2.55;1.17;;;9.20;85.10;;;;;;5051182;28;20308;-50
2022/11/21 11:09:05;;;;;;;1.27;0.90;;;9.20;85.20;;;;;;5051709;28;20242;-50
2022/11/21 11:11:34;;;;;;;1.15;1.05;;;9.20;85.20;;;;;;5049767;28;20204;-50
2022/11/21 11:14:06;;;;;;;1.27;0.88;;;9.20;85.20;;;;;;5048161;28;20252;-50
2022/11/21 11:16:39;;;;;;;0.80;0.80;;;9.20;85.20;;;;;;5046896;28;20196;-49
2022/11/21 11:19:19;;;;;;;1.75;1.00;;;9.20;85.20;;;;;;5057444;28;20473;-49
2022/11/21 11:21:55;;;;;;;1.13;0.80;;;9.20;85.20;;;;;;5072676;28;20622;-50
2022/11/21 11:24:26;;;;;;;1.50;1.05;;;9.20;85.20;;;;;;5049818;28;20303;-49
2022/11/21 11:27:00;;;;;;;1.05;0.95;;;9.20;84.90;;;;;;5048939;28;20192;-49
2022/11/21 11:29:30;;;;;;;1.00;0.90;;;9.20;84.80;;;;;;5066929;28;20200;-51
2022/11/21 11:32:14;;;;;;;0.90;0.60;;;9.20;84.70;;;;;;5052335;28;20442;-53
2022/11/21 11:34:57;;;;;;;4.53;1.00;;;9.20;84.60;;;;;;5049974;28;21161;-49
2022/11/21 11:37:41;;;;;;;1.48;1.00;;;9.20;86.10;;;;;;5055676;28;20305;-49
2022/11/21 11:40:20;;;;;;;0.95;0.77;;;9.20;84.70;;;;;;5041457;28;20220;-50
2022/11/21 11:49:12;;;;;;;0.75;0.60;;;9.20;84.70;;;;;;5061351;28;20250;-49
2022/11/21 11:52:05;;;;;;;1.98;0.70;;;9.20;84.80;;;;;;5054606;28;20192;-50
2022/11/21 11:54:40;;;;;;;1.33;0.73;;;9.20;84.80;;;;;;5050276;28;20654;-50
2022/11/21 11:57:10;;;;;;;0.90;0.60;;;9.20;84.80;;;;;;5054058;28;20486;-49
2022/11/21 11:59:44;;;;;;;1.13;0.80;;;9.20;84.80;;;;;;5041443;28;20475;-50
2022/11/21 12:02:20;;;;;;;1.00;0.65;;;9.20;84.70;;;;;;5061824;28;20613;-48
2022/11/21 12:04:55;;;;;;;0.90;0.90;;;9.20;84.70;;;;;;5048701;28;20278;-50
2022/11/21 12:07:31;;;;;;;1.77;1.00;;;9.20;84.60;;;;;;5053153;28;20282;-50
2022/11/21 12:10:27;;;;;;;1.70;0.85;;;9.20;84.20;;;;;;5060834;28;20737;-49
2022/11/21 12:13:03;;;;;;;1.70;0.93;;;9.20;84.40;;;;;;5081381;28;20703;-49
2022/11/21 12:15:51;;;;;;;1.52;0.73;;;9.20;83.70;;;;;;5037175;28;20477;-49
2022/11/21 12:18:31;;;;;;;0.85;0.70;;;9.20;83.70;;;;;;5041681;28;20303;-49
2022/11/21 12:21:09;;;;;;;1.02;0.80;;;9.20;83.70;;;;;;5048385;28;20589;-50
2022/11/21 12:23:44;;;;;;;1.20;0.98;;;9.20;84.20;;;;;;5049114;28;20212;-50
2022/11/21 12:26:34;;;;;;;1.92;0.98;;;9.20;83.90;;;;;;5033768;28;20643;-49
2022/11/21 12:29:29;;;;;;;1.30;0.80;;;9.20;83.70;;;;;;5026388;28;20223;-50
2022/11/21 12:32:21;;;;;;;1.10;0.80;;;9.20;83.90;;;;;;5027944;28;20216;-50
2022/11/21 12:35:11;;;;;;;1.95;0.60;;;9.20;84.30;;;;;;5028584;28;20221;-49
2022/11/21 12:37:50;;;;;;;1.17;0.80;;;9.20;84.00;;;;;;5029168;28;20213;-50
2022/11/21 12:40:33;;;;;;;0.90;0.70;;;9.20;83.60;;;;;;5041307;28;20305;-49
2022/11/21 12:43:13;;;;;;;1.25;0.93;;;9.20;83.70;;;;;;5055435;28;20220;-49
2022/11/21 12:45:48;;;;;;;1.95;1.05;;;9.20;83.70;;;;;;5049554;28;20215;-50
2022/11/21 12:54:46;;;;;;;1.77;1.27;;;9.20;83.70;;;;;;5061688;28;20769;-49
2022/11/21 12:57:18;;;;;;;6.13;1.33;;;9.20;83.60;;;;;;5077357;28;20215;-49
2022/11/21 12:59:56;;;;;;;2.30;1.10;;;9.20;83.70;;;;;;5065152;28;20770;-49
2022/11/21 13:02:38;;;;;;;2.40;1.27;;;9.20;83.70;;;;;;5052401;28;20589;-49
2022/11/21 13:05:16;;;;;;;2.38;1.50;;;9.20;83.70;;;;;;5050359;28;20306;-49
2022/11/21 13:07:46;;;;;;;1.13;0.90;;;9.20;83.60;;;;;;5047575;28;20196;-50
2022/11/21 13:10:18;;;;;;;1.90;1.67;;;9.20;83.70;;;;;;5061633;28;20242;-50
2022/11/21 13:12:49;;;;;;;1.98;1.10;;;9.20;83.70;;;;;;5078780;28;20270;-50
2022/11/21 13:15:24;;;;;;;1.33;1.10;;;9.20;83.60;;;;;;5045128;28;20949;-50
2022/11/21 13:17:56;;;;;;;2.85;0.90;;;9.20;83.70;;;;;;5050034;28;20207;-50
2022/11/21 13:20:30;;;;;;;4.20;1.42;;;9.20;83.70;;;;;;5066178;28;20402;-49
2022/11/21 13:23:00;;;;;;;2.00;1.00;;;9.30;83.70;;;;;;5039823;28;20473;-49
2022/11/21 13:25:48;;;;;;;1.52;0.75;;;9.30;83.80;;;;;;5049394;28;20260;-49
2022/11/21 13:28:31;;;;;;;2.60;1.17;;;9.20;83.60;;;;;;5044146;28;20300;-50
2022/11/21 13:31:02;;;;;;;1.27;0.90;;;9.30;83.80;;;;;;5046578;28;21006;-49
2022/11/21 13:33:55;;;;;;;1.65;1.17;;;9.20;83.70;;;;;;5080171;28;20691;-50
2022/11/21 13:36:41;;;;;;;1.38;0.82;;;9.20;83.60;;;;;;5036859;28;20239;-49
2022/11/21 13:39:37;;;;;;;1.13;0.70;;;9.20;83.70;;;;;;5010064;28;20217;-49
2022/11/21 13:44:58;;;;;;;1.23;0.80;;;9.20;83.70;;;;;;5021650;28;20498;-49
2022/11/21 13:48:06;;;;;;;1.20;0.70;;;9.20;83.90;;;;;;5044367;28;20240;-49
2022/11/21 13:51:03;;;;;;;1.30;0.80;;;9.20;84.10;;;;;;5058677;28;20212;-49
2022/11/21 13:53:54;;;;;;;1.95;1.00;;;9.20;84.20;;;;;;5061967;28;20229;-49
2022/11/21 13:56:38;;;;;;;1.00;0.75;;;9.30;84.40;;;;;;5067948;28;20224;-51